sensor_id;sensor_type;location;lat;lon;timestamp;pressure;altitude;pressure_sealevel;temperature;humidity
33151;BME280;19508;42.578;23.416;2023-03-21T00:01:31;93507.06;;;13.08;48.35
33151;BME280;19508;42.578;23.416;2023-03-21T00:03:56;93495.09;;;13.30;48.15
33151;BME280;19508;42.578;23.416;2023-03-21T00:06:22;93492.44;;;13.24;48.00
33151;BME280;19508;42.578;23.416;2023-03-21T00:08:47;93499.19;;;13.22;48.39
33151;BME280;19508;42.578;23.416;2023-03-21T00:11:13;93491.88;;;13.22;48.43
33151;BME280;19508;42.578;23.416;2023-03-21T00:13:38;93478.69;;;13.11;48.60
33151;BME280;19508;42.578;23.416;2023-03-21T00:16:09;93480.06;;;12.98;48.90
33151;BME280;19508;42.578;23.416;2023-03-21T00:18:43;93486.03;;;12.95;49.04
33151;BME280;19508;42.578;23.416;2023-03-21T00:21:13;93481.72;;;12.99;49.44
33151;BME280;19508;42.578;23.416;2023-03-21T00:23:40;93472.25;;;12.96;49.07
33151;BME280;19508;42.578;23.416;2023-03-21T00:26:05;93486.31;;;12.93;49.38
33151;BME280;19508;42.578;23.416;2023-03-21T00:28:39;93491.44;;;12.90;49.57
33151;BME280;19508;42.578;23.416;2023-03-21T00:31:05;93477.41;;;12.93;49.22
33151;BME280;19508;42.578;23.416;2023-03-21T00:33:32;93485.56;;;12.78;49.65
33151;BME280;19508;42.578;23.416;2023-03-21T00:35:59;93480.72;;;12.75;49.63
33151;BME280;19508;42.578;23.416;2023-03-21T00:38:25;93487.69;;;12.86;49.66
33151;BME280;19508;42.578;23.416;2023-03-21T00:40:51;93489.59;;;12.80;49.72
33151;BME280;19508;42.578;23.416;2023-03-21T00:43:17;93489.91;;;12.63;50.24
33151;BME280;19508;42.578;23.416;2023-03-21T00:45:44;93492.09;;;12.56;50.80
33151;BME280;19508;42.578;23.416;2023-03-21T00:48:10;93491.03;;;12.57;50.96
33151;BME280;19508;42.578;23.416;2023-03-21T00:50:36;93489.16;;;12.42;51.01
33151;BME280;19508;42.578;23.416;2023-03-21T00:53:03;93488.06;;;12.38;51.60
33151;BME280;19508;42.578;23.416;2023-03-21T00:55:28;93495.91;;;12.30;51.92
33151;BME280;19508;42.578;23.416;2023-03-21T00:57:53;93489.44;;;12.16;52.17
33151;BME280;19508;42.578;23.416;2023-03-21T01:00:20;93484.06;;;12.16;52.29
33151;BME280;19508;42.578;23.416;2023-03-21T01:02:45;93482.97;;;12.06;52.75
33151;BME280;19508;42.578;23.416;2023-03-21T01:05:24;93486.19;;;11.93;53.49
33151;BME280;19508;42.578;23.416;2023-03-21T01:08:14;93478.66;;;11.80;53.81
33151;BME280;19508;42.578;23.416;2023-03-21T01:10:42;93486.44;;;11.71;53.95
33151;BME280;19508;42.578;23.416;2023-03-21T01:13:10;93482.38;;;11.64;54.32
33151;BME280;19508;42.578;23.416;2023-03-21T01:15:37;93476.72;;;11.55;54.66
33151;BME280;19508;42.578;23.416;2023-03-21T01:18:06;93481.28;;;11.49;54.67
33151;BME280;19508;42.578;23.416;2023-03-21T01:20:32;93470.19;;;11.36;54.87
33151;BME280;19508;42.578;23.416;2023-03-21T01:22:57;93478.84;;;11.48;54.77
33151;BME280;19508;42.578;23.416;2023-03-21T01:25:22;93478.59;;;11.49;54.42
33151;BME280;19508;42.578;23.416;2023-03-21T01:27:48;93472.09;;;11.40;54.33
33151;BME280;19508;42.578;23.416;2023-03-21T01:30:14;93469.13;;;11.32;54.75
33151;BME280;19508;42.578;23.416;2023-03-21T01:32:39;93466.13;;;11.23;55.08
33151;BME280;19508;42.578;23.416;2023-03-21T01:35:05;93467.19;;;11.17;55.33
33151;BME280;19508;42.578;23.416;2023-03-21T01:37:31;93470.94;;;11.11;55.66
33151;BME280;19508;42.578;23.416;2023-03-21T01:39:56;93471.47;;;11.02;56.31
33151;BME280;19508;42.578;23.416;2023-03-21T01:42:22;93473.81;;;10.84;56.77
33151;BME280;19508;42.578;23.416;2023-03-21T01:47:54;93476.94;;;10.60;57.28
33151;BME280;19508;42.578;23.416;2023-03-21T01:50:20;93483.31;;;10.49;58.27
33151;BME280;19508;42.578;23.416;2023-03-21T01:52:48;93481.50;;;10.55;58.01
33151;BME280;19508;42.578;23.416;2023-03-21T01:55:15;93480.94;;;10.53;58.06
33151;BME280;19508;42.578;23.416;2023-03-21T01:57:47;93484.72;;;10.52;58.44
33151;BME280;19508;42.578;23.416;2023-03-21T02:00:14;93483.09;;;10.56;58.36
33151;BME280;19508;42.578;23.416;2023-03-21T02:02:42;93481.94;;;10.41;58.75
33151;BME280;19508;42.578;23.416;2023-03-21T02:05:18;93494.34;;;10.42;59.14
33151;BME280;19508;42.578;23.416;2023-03-21T02:07:47;93493.19;;;10.28;59.43
33151;BME280;19508;42.578;23.416;2023-03-21T02:10:16;93485.00;;;10.18;59.67
33151;BME280;19508;42.578;23.416;2023-03-21T02:12:42;93486.03;;;10.12;59.70
33151;BME280;19508;42.578;23.416;2023-03-21T02:15:08;93487.00;;;9.96;60.27
33151;BME280;19508;42.578;23.416;2023-03-21T02:34:02;93479.38;;;9.55;61.12
33151;BME280;19508;42.578;23.416;2023-03-21T02:39:30;93483.88;;;9.45;61.72
33151;BME280;19508;42.578;23.416;2023-03-21T02:42:19;93485.38;;;9.36;61.71
33151;BME280;19508;42.578;23.416;2023-03-21T02:47:26;93491.06;;;9.12;63.18
33151;BME280;19508;42.578;23.416;2023-03-21T02:50:16;93487.16;;;9.25;62.87
33151;BME280;19508;42.578;23.416;2023-03-21T02:52:46;93481.34;;;9.06;62.96
33151;BME280;19508;42.578;23.416;2023-03-21T02:55:23;93481.38;;;9.11;62.44
33151;BME280;19508;42.578;23.416;2023-03-21T02:57:51;93486.72;;;9.06;62.43
33151;BME280;19508;42.578;23.416;2023-03-21T03:00:20;93476.97;;;9.00;62.66
33151;BME280;19508;42.578;23.416;2023-03-21T03:02:48;93476.34;;;8.93;62.82
33151;BME280;19508;42.578;23.416;2023-03-21T03:05:28;93473.91;;;8.91;63.10
33151;BME280;19508;42.578;23.416;2023-03-21T03:08:25;93468.09;;;8.77;63.87
33151;BME280;19508;42.578;23.416;2023-03-21T03:24:21;93459.13;;;8.89;63.26
33151;BME280;19508;42.578;23.416;2023-03-21T03:27:20;93464.44;;;8.84;63.32
33151;BME280;19508;42.578;23.416;2023-03-21T03:29:45;93474.44;;;8.66;63.80
33151;BME280;19508;42.578;23.416;2023-03-21T03:32:20;93458.13;;;8.73;63.33
33151;BME280;19508;42.578;23.416;2023-03-21T03:34:50;93463.31;;;8.58;64.24
33151;BME280;19508;42.578;23.416;2023-03-21T03:37:24;93458.38;;;8.50;64.91
33151;BME280;19508;42.578;23.416;2023-03-21T03:40:34;93461.44;;;8.58;64.40
33151;BME280;19508;42.578;23.416;2023-03-21T03:43:09;93465.50;;;8.61;64.72
33151;BME280;19508;42.578;23.416;2023-03-21T03:45:41;93464.31;;;8.52;64.64
33151;BME280;19508;42.578;23.416;2023-03-21T03:48:27;93474.22;;;8.51;64.09
33151;BME280;19508;42.578;23.416;2023-03-21T03:51:05;93487.28;;;8.26;65.12
33151;BME280;19508;42.578;23.416;2023-03-21T03:53:36;93472.16;;;8.19;65.46
33151;BME280;19508;42.578;23.416;2023-03-21T03:56:06;93482.72;;;8.26;64.95
33151;BME280;19508;42.578;23.416;2023-03-21T03:58:36;93486.84;;;7.95;65.51
33151;BME280;19508;42.578;23.416;2023-03-21T04:01:04;93505.25;;;8.08;65.66
33151;BME280;19508;42.578;23.416;2023-03-21T04:03:30;93493.16;;;8.06;65.47
33151;BME280;19508;42.578;23.416;2023-03-21T04:05:56;93492.81;;;8.02;65.68
33151;BME280;19508;42.578;23.416;2023-03-21T04:08:21;93497.38;;;8.02;65.70
33151;BME280;19508;42.578;23.416;2023-03-21T04:10:47;93473.25;;;8.02;65.23
33151;BME280;19508;42.578;23.416;2023-03-21T04:13:12;93486.59;;;7.97;65.12
33151;BME280;19508;42.578;23.416;2023-03-21T04:15:38;93477.56;;;7.86;65.55
33151;BME280;19508;42.578;23.416;2023-03-21T04:18:04;93487.25;;;7.87;65.29
33151;BME280;19508;42.578;23.416;2023-03-21T04:20:30;93473.03;;;7.70;65.49
33151;BME280;19508;42.578;23.416;2023-03-21T04:22:55;93478.22;;;7.76;65.05
33151;BME280;19508;42.578;23.416;2023-03-21T04:25:21;93473.84;;;7.87;64.17
33151;BME280;19508;42.578;23.416;2023-03-21T04:27:47;93477.56;;;7.86;63.84
33151;BME280;19508;42.578;23.416;2023-03-21T04:30:15;93480.34;;;7.91;63.78
33151;BME280;19508;42.578;23.416;2023-03-21T04:32:40;93470.50;;;7.80;64.03
33151;BME280;19508;42.578;23.416;2023-03-21T04:35:08;93472.84;;;7.93;64.00
33151;BME280;19508;42.578;23.416;2023-03-21T04:37:34;93481.16;;;7.75;64.24
33151;BME280;19508;42.578;23.416;2023-03-21T04:40:00;93472.03;;;7.59;65.06
33151;BME280;19508;42.578;23.416;2023-03-21T04:42:30;93469.63;;;7.57;65.79
33151;BME280;19508;42.578;23.416;2023-03-21T04:44:56;93468.31;;;7.60;65.81
33151;BME280;19508;42.578;23.416;2023-03-21T04:47:22;93469.31;;;7.71;65.40
33151;BME280;19508;42.578;23.416;2023-03-21T04:49:47;93478.41;;;7.70;66.00
33151;BME280;19508;42.578;23.416;2023-03-21T04:52:13;93471.88;;;7.66;66.00
33151;BME280;19508;42.578;23.416;2023-03-21T04:54:39;93470.84;;;7.67;65.88
33151;BME280;19508;42.578;23.416;2023-03-21T04:57:04;93479.03;;;7.77;66.02
33151;BME280;19508;42.578;23.416;2023-03-21T04:59:30;93479.22;;;7.87;65.82
33151;BME280;19508;42.578;23.416;2023-03-21T05:01:55;93480.16;;;7.98;65.72
33151;BME280;19508;42.578;23.416;2023-03-21T05:04:23;93479.75;;;8.06;65.40
33151;BME280;19508;42.578;23.416;2023-03-21T05:06:48;93488.91;;;8.10;65.18
33151;BME280;19508;42.578;23.416;2023-03-21T05:09:14;93490.38;;;8.17;65.56
33151;BME280;19508;42.578;23.416;2023-03-21T05:11:39;93480.63;;;8.11;65.33
33151;BME280;19508;42.578;23.416;2023-03-21T05:14:07;93481.06;;;8.03;66.11
33151;BME280;19508;42.578;23.416;2023-03-21T05:16:37;93490.38;;;8.17;65.45
33151;BME280;19508;42.578;23.416;2023-03-21T05:19:03;93483.22;;;8.40;64.92
33151;BME280;19508;42.578;23.416;2023-03-21T05:21:30;93477.16;;;8.50;64.74
33151;BME280;19508;42.578;23.416;2023-03-21T05:23:59;93493.88;;;8.79;63.76
33151;BME280;19508;42.578;23.416;2023-03-21T05:26:28;93483.34;;;8.94;63.55
33151;BME280;19508;42.578;23.416;2023-03-21T05:28:53;93484.22;;;8.99;63.40
33151;BME280;19508;42.578;23.416;2023-03-21T05:31:19;93490.50;;;9.10;63.16
33151;BME280;19508;42.578;23.416;2023-03-21T05:33:45;93486.81;;;9.16;63.09
33151;BME280;19508;42.578;23.416;2023-03-21T05:36:11;93484.28;;;9.31;62.61
33151;BME280;19508;42.578;23.416;2023-03-21T05:38:37;93489.31;;;9.55;62.36
33151;BME280;19508;42.578;23.416;2023-03-21T05:41:07;93493.03;;;9.76;61.97
33151;BME280;19508;42.578;23.416;2023-03-21T05:43:32;93478.72;;;9.70;61.26
33151;BME280;19508;42.578;23.416;2023-03-21T05:45:57;93486.47;;;9.99;60.00
33151;BME280;19508;42.578;23.416;2023-03-21T05:48:23;93484.28;;;10.28;59.53
33151;BME280;19508;42.578;23.416;2023-03-21T05:50:48;93482.03;;;10.52;59.21
33151;BME280;19508;42.578;23.416;2023-03-21T05:53:14;93482.09;;;10.72;59.32
33151;BME280;19508;42.578;23.416;2023-03-21T05:55:39;93474.09;;;10.92;58.79
33151;BME280;19508;42.578;23.416;2023-03-21T05:58:05;93477.41;;;11.10;57.09
33151;BME280;19508;42.578;23.416;2023-03-21T06:00:30;93470.19;;;11.36;56.79
33151;BME280;19508;42.578;23.416;2023-03-21T06:02:56;93468.34;;;11.62;55.73
33151;BME280;19508;42.578;23.416;2023-03-21T06:05:21;93472.44;;;11.79;54.77
33151;BME280;19508;42.578;23.416;2023-03-21T06:07:47;93460.84;;;12.04;53.53
33151;BME280;19508;42.578;23.416;2023-03-21T06:10:12;93463.25;;;12.21;53.30
33151;BME280;19508;42.578;23.416;2023-03-21T06:12:38;93453.25;;;12.27;52.67
33151;BME280;19508;42.578;23.416;2023-03-21T06:15:04;93454.34;;;12.31;52.57
33151;BME280;19508;42.578;23.416;2023-03-21T06:17:30;93457.06;;;12.10;52.73
33151;BME280;19508;42.578;23.416;2023-03-21T06:19:56;93449.50;;;11.87;53.40
33151;BME280;19508;42.578;23.416;2023-03-21T06:22:22;93445.47;;;12.00;53.04
33151;BME280;19508;42.578;23.416;2023-03-21T06:24:47;93450.03;;;12.20;52.94
33151;BME280;19508;42.578;23.416;2023-03-21T06:27:13;93443.81;;;12.29;52.90
33151;BME280;19508;42.578;23.416;2023-03-21T06:29:38;93450.81;;;12.30;52.89
33151;BME280;19508;42.578;23.416;2023-03-21T06:32:04;93444.06;;;12.28;53.76
33151;BME280;19508;42.578;23.416;2023-03-21T06:34:31;93447.56;;;12.43;52.88
33151;BME280;19508;42.578;23.416;2023-03-21T06:36:57;93445.66;;;12.49;52.73
33151;BME280;19508;42.578;23.416;2023-03-21T06:39:22;93443.94;;;12.79;52.02
33151;BME280;19508;42.578;23.416;2023-03-21T06:41:48;93441.19;;;12.89;51.30
33151;BME280;19508;42.578;23.416;2023-03-21T06:44:13;93442.69;;;13.15;51.02
33151;BME280;19508;42.578;23.416;2023-03-21T06:46:39;93462.00;;;13.48;50.49
33151;BME280;19508;42.578;23.416;2023-03-21T06:49:04;93454.13;;;13.96;48.99
33151;BME280;19508;42.578;23.416;2023-03-21T06:51:31;93445.50;;;14.23;48.29
33151;BME280;19508;42.578;23.416;2023-03-21T06:53:56;93447.19;;;14.48;48.00
33151;BME280;19508;42.578;23.416;2023-03-21T06:56:22;93436.66;;;14.12;47.86
33151;BME280;19508;42.578;23.416;2023-03-21T06:58:47;93448.94;;;13.99;48.58
33151;BME280;19508;42.578;23.416;2023-03-21T07:01:13;93447.97;;;13.85;48.90
33151;BME280;19508;42.578;23.416;2023-03-21T07:03:39;93448.00;;;14.14;47.24
33151;BME280;19508;42.578;23.416;2023-03-21T07:06:06;93459.22;;;14.31;47.62
33151;BME280;19508;42.578;23.416;2023-03-21T07:08:34;93455.31;;;14.48;47.00
33151;BME280;19508;42.578;23.416;2023-03-21T07:10:59;93449.97;;;14.66;46.28
33151;BME280;19508;42.578;23.416;2023-03-21T07:13:25;93446.38;;;14.95;45.62
33151;BME280;19508;42.578;23.416;2023-03-21T07:15:51;93450.63;;;15.25;45.47
33151;BME280;19508;42.578;23.416;2023-03-21T07:18:17;93454.34;;;15.72;44.32
33151;BME280;19508;42.578;23.416;2023-03-21T07:20:46;93451.25;;;15.97;44.18
33151;BME280;19508;42.578;23.416;2023-03-21T07:23:19;93453.72;;;16.13;43.02
33151;BME280;19508;42.578;23.416;2023-03-21T07:25:47;93454.16;;;16.20;43.17
33151;BME280;19508;42.578;23.416;2023-03-21T07:28:13;93443.63;;;16.78;40.53
33151;BME280;19508;42.578;23.416;2023-03-21T07:30:38;93442.03;;;17.18;40.12
33151;BME280;19508;42.578;23.416;2023-03-21T07:33:04;93443.00;;;17.50;39.14
33151;BME280;19508;42.578;23.416;2023-03-21T07:35:31;93441.97;;;17.60;38.82
33151;BME280;19508;42.578;23.416;2023-03-21T07:37:56;93439.75;;;17.75;39.75
33151;BME280;19508;42.578;23.416;2023-03-21T07:40:22;93441.47;;;17.58;40.50
33151;BME280;19508;42.578;23.416;2023-03-21T07:42:48;93441.88;;;17.51;40.84
33151;BME280;19508;42.578;23.416;2023-03-21T07:45:15;93437.78;;;17.40;40.63
33151;BME280;19508;42.578;23.416;2023-03-21T07:47:45;93443.22;;;17.40;40.20
33151;BME280;19508;42.578;23.416;2023-03-21T07:50:12;93452.22;;;17.27;40.18
33151;BME280;19508;42.578;23.416;2023-03-21T07:52:37;93439.75;;;17.62;39.97
33151;BME280;19508;42.578;23.416;2023-03-21T07:55:03;93446.44;;;17.92;39.38
33151;BME280;19508;42.578;23.416;2023-03-21T07:57:29;93444.03;;;17.90;39.23
33151;BME280;19508;42.578;23.416;2023-03-21T07:59:55;93447.41;;;17.73;37.05
33151;BME280;19508;42.578;23.416;2023-03-21T08:02:20;93448.03;;;17.70;38.74
33151;BME280;19508;42.578;23.416;2023-03-21T08:04:45;93456.09;;;17.62;39.05
33151;BME280;19508;42.578;23.416;2023-03-21T08:07:11;93456.47;;;17.83;39.20
33151;BME280;19508;42.578;23.416;2023-03-21T08:09:36;93459.69;;;17.85;39.00
33151;BME280;19508;42.578;23.416;2023-03-21T08:12:03;93452.84;;;17.87;39.67
33151;BME280;19508;42.578;23.416;2023-03-21T08:14:28;93444.41;;;18.20;39.55
33151;BME280;19508;42.578;23.416;2023-03-21T08:16:54;93450.06;;;18.23;38.30
33151;BME280;19508;42.578;23.416;2023-03-21T08:19:19;93455.25;;;18.33;38.14
33151;BME280;19508;42.578;23.416;2023-03-21T08:21:47;93456.28;;;18.38;38.56
33151;BME280;19508;42.578;23.416;2023-03-21T08:24:14;93443.63;;;19.04;38.20
33151;BME280;19508;42.578;23.416;2023-03-21T08:26:40;93438.25;;;19.21;36.30
33151;BME280;19508;42.578;23.416;2023-03-21T08:29:06;93442.75;;;18.55;37.80
33151;BME280;19508;42.578;23.416;2023-03-21T08:31:31;93427.63;;;17.68;39.17
33151;BME280;19508;42.578;23.416;2023-03-21T08:52:41;93438.53;;;17.82;39.57
33151;BME280;19508;42.578;23.416;2023-03-21T08:55:07;93440.66;;;17.57;40.18
33151;BME280;19508;42.578;23.416;2023-03-21T08:57:33;93440.78;;;17.52;39.83
33151;BME280;19508;42.578;23.416;2023-03-21T08:59:58;93451.19;;;16.81;41.15
33151;BME280;19508;42.578;23.416;2023-03-21T09:02:24;93450.78;;;17.15;41.17
33151;BME280;19508;42.578;23.416;2023-03-21T09:04:49;93436.78;;;17.36;41.98
33151;BME280;19508;42.578;23.416;2023-03-21T09:07:19;93438.22;;;17.69;39.67
33151;BME280;19508;42.578;23.416;2023-03-21T09:09:44;93437.53;;;18.00;40.12
33151;BME280;19508;42.578;23.416;2023-03-21T09:12:10;93433.59;;;18.06;37.80
33151;BME280;19508;42.578;23.416;2023-03-21T09:14:35;93435.94;;;17.99;38.40
33151;BME280;19508;42.578;23.416;2023-03-21T09:17:01;93437.19;;;18.15;37.24
33151;BME280;19508;42.578;23.416;2023-03-21T09:19:26;93427.31;;;18.73;37.09
33151;BME280;19508;42.578;23.416;2023-03-21T09:21:53;93427.22;;;18.95;36.28
33151;BME280;19508;42.578;23.416;2023-03-21T09:24:20;93418.81;;;18.74;35.21
33151;BME280;19508;42.578;23.416;2023-03-21T09:26:46;93414.91;;;18.98;35.74
33151;BME280;19508;42.578;23.416;2023-03-21T09:29:15;93406.38;;;18.91;35.39
33151;BME280;19508;42.578;23.416;2023-03-21T09:31:41;93408.09;;;19.26;34.59
33151;BME280;19508;42.578;23.416;2023-03-21T09:34:07;93404.00;;;19.81;33.93
33151;BME280;19508;42.578;23.416;2023-03-21T09:36:33;93406.41;;;19.82;35.02
33151;BME280;19508;42.578;23.416;2023-03-21T09:38:59;93382.66;;;19.91;34.06
33151;BME280;19508;42.578;23.416;2023-03-21T09:47:20;93385.53;;;20.21;33.20
33151;BME280;19508;42.578;23.416;2023-03-21T09:50:06;93386.44;;;19.38;34.50
33151;BME280;19508;42.578;23.416;2023-03-21T09:55:15;93377.34;;;19.60;32.62
33151;BME280;19508;42.578;23.416;2023-03-21T09:57:55;93382.47;;;19.62;32.87
33151;BME280;19508;42.578;23.416;2023-03-21T10:00:29;93378.78;;;20.10;32.15
33151;BME280;19508;42.578;23.416;2023-03-21T10:03:01;93373.31;;;20.82;31.36
33151;BME280;19508;42.578;23.416;2023-03-21T10:05:30;93365.22;;;21.33;31.00
33151;BME280;19508;42.578;23.416;2023-03-21T10:08:15;93359.16;;;21.69;33.49
33151;BME280;19508;42.578;23.416;2023-03-21T10:10:49;93354.38;;;22.41;28.61
33151;BME280;19508;42.578;23.416;2023-03-21T10:13:27;93339.44;;;23.08;27.95
33151;BME280;19508;42.578;23.416;2023-03-21T10:16:00;93340.19;;;22.84;27.67
33151;BME280;19508;42.578;23.416;2023-03-21T10:18:29;93334.91;;;22.79;28.35
33151;BME280;19508;42.578;23.416;2023-03-21T10:20:55;93335.25;;;22.65;28.72
33151;BME280;19508;42.578;23.416;2023-03-21T10:23:24;93342.72;;;22.32;28.66
33151;BME280;19508;42.578;23.416;2023-03-21T10:25:58;93354.31;;;21.75;29.11
33151;BME280;19508;42.578;23.416;2023-03-21T10:28:30;93364.88;;;22.39;27.82
33151;BME280;19508;42.578;23.416;2023-03-21T10:30:59;93348.78;;;23.31;28.61
33151;BME280;19508;42.578;23.416;2023-03-21T10:33:28;93350.75;;;23.68;26.45
33151;BME280;19508;42.578;23.416;2023-03-21T10:35:59;93350.13;;;22.76;27.13
33151;BME280;19508;42.578;23.416;2023-03-21T10:38:27;93356.16;;;22.70;26.60
33151;BME280;19508;42.578;23.416;2023-03-21T10:40:53;93344.34;;;23.02;28.08
33151;BME280;19508;42.578;23.416;2023-03-21T10:45:52;93344.50;;;22.28;27.92
33151;BME280;19508;42.578;23.416;2023-03-21T10:48:19;93340.19;;;22.06;29.09
33151;BME280;19508;42.578;23.416;2023-03-21T10:50:47;93338.44;;;22.01;28.31
33151;BME280;19508;42.578;23.416;2023-03-21T10:53:17;93341.28;;;22.13;28.69
33151;BME280;19508;42.578;23.416;2023-03-21T10:55:47;93337.31;;;22.02;28.35
33151;BME280;19508;42.578;23.416;2023-03-21T10:58:19;93333.66;;;21.98;27.44
33151;BME280;19508;42.578;23.416;2023-03-21T11:01:12;93339.69;;;22.58;27.43
33151;BME280;19508;42.578;23.416;2023-03-21T11:03:42;93324.13;;;22.62;27.39
33151;BME280;19508;42.578;23.416;2023-03-21T11:06:45;93318.34;;;21.97;27.69
33151;BME280;19508;42.578;23.416;2023-03-21T11:09:07;93315.84;;;22.83;27.36
33151;BME280;19508;42.578;23.416;2023-03-21T11:11:37;93316.84;;;22.78;26.31
33151;BME280;19508;42.578;23.416;2023-03-21T11:14:06;93311.41;;;22.45;27.17
33151;BME280;19508;42.578;23.416;2023-03-21T11:16:41;93302.09;;;22.58;27.28
33151;BME280;19508;42.578;23.416;2023-03-21T11:19:31;93310.50;;;22.41;27.90
33151;BME280;19508;42.578;23.416;2023-03-21T11:21:58;93301.41;;;22.73;25.77
33151;BME280;19508;42.578;23.416;2023-03-21T11:24:29;93305.97;;;22.57;26.89
33151;BME280;19508;42.578;23.416;2023-03-21T11:26:55;93305.13;;;22.44;26.85
33151;BME280;19508;42.578;23.416;2023-03-21T11:29:28;93297.75;;;22.81;26.61
33151;BME280;19508;42.578;23.416;2023-03-21T11:32:20;93293.53;;;23.33;25.38
33151;BME280;19508;42.578;23.416;2023-03-21T11:34:53;93299.22;;;22.79;26.33
33151;BME280;19508;42.578;23.416;2023-03-21T11:39:56;93292.97;;;21.67;26.87
33151;BME280;19508;42.578;23.416;2023-03-21T11:42:28;93282.38;;;22.44;24.10
33151;BME280;19508;42.578;23.416;2023-03-21T11:45:10;93282.38;;;22.44;25.41
33151;BME280;19508;42.578;23.416;2023-03-21T11:47:37;93280.75;;;22.18;26.24
33151;BME280;19508;42.578;23.416;2023-03-21T11:50:36;93287.63;;;21.71;27.00
33151;BME280;19508;42.578;23.416;2023-03-21T12:05:13;93261.00;;;23.59;26.66
33151;BME280;19508;42.578;23.416;2023-03-21T12:21:47;93254.31;;;22.96;27.13
33151;BME280;19508;42.578;23.416;2023-03-21T12:24:50;93243.75;;;23.34;27.28
33151;BME280;19508;42.578;23.416;2023-03-21T12:28:01;93240.25;;;22.97;26.87
33151;BME280;19508;42.578;23.416;2023-03-21T12:30:17;93235.78;;;22.56;28.72
33151;BME280;19508;42.578;23.416;2023-03-21T12:47:02;93228.47;;;23.49;26.82
33151;BME280;19508;42.578;23.416;2023-03-21T12:49:34;93221.59;;;22.78;27.37
33151;BME280;19508;42.578;23.416;2023-03-21T12:52:29;93218.75;;;22.50;27.61
33151;BME280;19508;42.578;23.416;2023-03-21T12:55:22;93216.09;;;22.78;27.97
33151;BME280;19508;42.578;23.416;2023-03-21T12:58:10;93210.75;;;22.82;26.87
33151;BME280;19508;42.578;23.416;2023-03-21T13:00:46;93201.03;;;22.85;27.76
33151;BME280;19508;42.578;23.416;2023-03-21T13:03:41;93203.78;;;22.60;27.69
33151;BME280;19508;42.578;23.416;2023-03-21T13:06:13;93202.53;;;22.00;28.98
33151;BME280;19508;42.578;23.416;2023-03-21T13:09:05;93209.47;;;21.52;29.14
33151;BME280;19508;42.578;23.416;2023-03-21T13:11:34;93203.84;;;20.56;30.42
33151;BME280;19508;42.578;23.416;2023-03-21T13:14:07;93206.91;;;20.84;30.02
33151;BME280;19508;42.578;23.416;2023-03-21T13:20:21;93201.97;;;20.48;30.51
33151;BME280;19508;42.578;23.416;2023-03-21T13:22:35;93209.66;;;20.17;31.44
33151;BME280;19508;42.578;23.416;2023-03-21T13:25:17;93199.53;;;20.17;31.36
33151;BME280;19508;42.578;23.416;2023-03-21T13:27:49;93196.88;;;20.00;32.14
33151;BME280;19508;42.578;23.416;2023-03-21T13:30:24;93195.84;;;19.58;32.18
33151;BME280;19508;42.578;23.416;2023-03-21T13:32:55;93194.03;;;19.70;32.56
33151;BME280;19508;42.578;23.416;2023-03-21T13:35:37;93180.09;;;19.46;33.54
33151;BME280;19508;42.578;23.416;2023-03-21T13:38:12;93188.06;;;19.86;32.95
33151;BME280;19508;42.578;23.416;2023-03-21T13:40:46;93186.03;;;19.74;33.15
33151;BME280;19508;42.578;23.416;2023-03-21T13:46:14;93182.28;;;19.79;32.75
33151;BME280;19508;42.578;23.416;2023-03-21T14:02:03;93184.44;;;19.38;33.73
33151;BME280;19508;42.578;23.416;2023-03-21T14:04:33;93181.72;;;19.12;33.97
33151;BME280;19508;42.578;23.416;2023-03-21T14:07:06;93183.50;;;19.08;34.02
33151;BME280;19508;42.578;23.416;2023-03-21T14:09:35;93176.13;;;18.92;34.06
33151;BME280;19508;42.578;23.416;2023-03-21T14:12:03;93176.41;;;18.64;34.88
33151;BME280;19508;42.578;23.416;2023-03-21T14:14:53;93176.53;;;18.59;34.75
33151;BME280;19508;42.578;23.416;2023-03-21T14:17:28;93178.78;;;18.48;35.55
33151;BME280;19508;42.578;23.416;2023-03-21T14:22:26;93178.44;;;18.50;35.00
33151;BME280;19508;42.578;23.416;2023-03-21T14:25:01;93179.63;;;18.66;34.80
33151;BME280;19508;42.578;23.416;2023-03-21T14:27:33;93167.88;;;18.48;35.08
33151;BME280;19508;42.578;23.416;2023-03-21T14:30:00;93175.13;;;18.70;36.26
33151;BME280;19508;42.578;23.416;2023-03-21T14:32:27;93178.28;;;18.38;35.92
33151;BME280;19508;42.578;23.416;2023-03-21T14:34:54;93177.16;;;18.39;35.71
33151;BME280;19508;42.578;23.416;2023-03-21T14:37:29;93174.09;;;18.40;35.63
33151;BME280;19508;42.578;23.416;2023-03-21T14:40:00;93168.75;;;18.18;36.51
33151;BME280;19508;42.578;23.416;2023-03-21T14:42:26;93165.31;;;17.95;36.93
33151;BME280;19508;42.578;23.416;2023-03-21T14:44:51;93160.91;;;18.16;36.52
33151;BME280;19508;42.578;23.416;2023-03-21T14:47:20;93168.66;;;17.92;36.95
33151;BME280;19508;42.578;23.416;2023-03-21T14:49:47;93166.78;;;18.10;37.56
33151;BME280;19508;42.578;23.416;2023-03-21T14:52:20;93175.88;;;17.88;37.20
33151;BME280;19508;42.578;23.416;2023-03-21T14:54:47;93169.59;;;17.79;36.88
33151;BME280;19508;42.578;23.416;2023-03-21T14:57:18;93174.50;;;17.76;37.07
33151;BME280;19508;42.578;23.416;2023-03-21T14:59:47;93168.84;;;17.64;36.46
33151;BME280;19508;42.578;23.416;2023-03-21T15:02:21;93175.78;;;17.70;36.81
33151;BME280;19508;42.578;23.416;2023-03-21T15:04:50;93174.97;;;17.70;37.01
33151;BME280;19508;42.578;23.416;2023-03-21T15:07:28;93173.56;;;17.72;35.59
33151;BME280;19508;42.578;23.416;2023-03-21T15:09:59;93177.81;;;17.65;35.75
33151;BME280;19508;42.578;23.416;2023-03-21T15:12:25;93166.88;;;17.56;35.82
33151;BME280;19508;42.578;23.416;2023-03-21T15:14:50;93173.88;;;17.48;38.18
33151;BME280;19508;42.578;23.416;2023-03-21T15:17:17;93171.19;;;17.26;36.40
33151;BME280;19508;42.578;23.416;2023-03-21T15:19:43;93177.34;;;17.40;37.81